Current Weather

Gary/Chicago Intl

Gary, Indiana (KGYY)

Report from: Wednesday, May 29, 2024 3:55 AM CDT
Current time: Wednesday, May 29, 2024 4:24 AM CDT

Nearby weather – Weather history – Daily summaries
Weather forecast

Present weatherLight rain
Temperature12.0°C (53.6°F)
Dew point12.0°C (53.6°F)
Winds 18 kts (9.3 m/s, 20.7 mph) North (10°)
Wind gusts 25 kts (12.9 m/s, 28.8 mph)
Visibility9 mi. (14.5 km)
Clouds Ceiling: Overcast 1,100 ft. (335 m)
Altimeter30.05 in.Hg (1018 mB)
Precipitiation0.02 in. (1 mm)
Relative humidity100 %
Density altitude-309 ft. (-94 m)
Remarks Fully automated report
Automated weather observing station with precipitation discriminator
Flight conditions Marginal Visual Meteorological Conditions
Raw dataKGYY 290855Z AUTO 01018G25KT 9SM -RA OVC011 12/12 A3005 RMK AO2 P0002
An error has occurred. This application may no longer respond until reloaded. Reload 🗙